createdAt,value
2019-04-30T00:00:18.935Z,85.21
2019-04-30T00:02:57.622Z,85.42
2019-04-30T00:05:25.941Z,85.61
2019-04-30T00:07:57.426Z,85.97
2019-04-30T00:10:29.109Z,86.28
2019-04-30T00:12:55.468Z,86.21
2019-04-30T00:15:25.699Z,86.21
2019-04-30T00:17:58.692Z,86.15
2019-04-30T00:20:25.614Z,86.44
2019-04-30T00:22:55.296Z,86.71
2019-04-30T00:25:27.011Z,86.91
2019-04-30T00:27:55.824Z,86.95
2019-04-30T00:30:25.211Z,86.92
2019-04-30T00:32:55.576Z,86.88
2019-04-30T00:35:25.365Z,86.98
2019-04-30T00:37:57.630Z,86.76
2019-04-30T00:40:28.688Z,86.88
2019-04-30T00:42:55.885Z,87.08
2019-04-30T00:45:25.184Z,87.10
2019-04-30T00:47:53.580Z,87.18
2019-04-30T00:50:21.853Z,87.29
2019-04-30T00:52:50.152Z,87.37
2019-04-30T00:55:18.749Z,87.07
2019-04-30T00:57:47.562Z,87.10
2019-04-30T01:00:19.612Z,87.16
2019-04-30T01:02:48.336Z,87.27
2019-04-30T01:05:18.278Z,87.34
2019-04-30T01:07:50.245Z,87.51
2019-04-30T01:10:19.648Z,87.69
2019-04-30T01:12:50.135Z,87.53
2019-04-30T01:15:18.948Z,87.44
2019-04-30T01:17:51.088Z,87.51
2019-04-30T01:20:19.372Z,87.10
2019-04-30T01:22:48.657Z,87.02
2019-04-30T01:25:18.743Z,87.21
2019-04-30T01:27:49.122Z,87.31
2019-04-30T01:30:22.687Z,87.18
2019-04-30T01:32:52.176Z,87.29
2019-04-30T01:35:19.240Z,87.47
2019-04-30T01:37:48.764Z,87.55
2019-04-30T01:40:18.965Z,87.47
2019-04-30T01:42:48.557Z,87.46
2019-04-30T01:45:18.740Z,87.31
2019-04-30T01:47:47.226Z,87.65
2019-04-30T01:50:15.594Z,87.84
2019-04-30T01:52:52.645Z,87.76
2019-04-30T01:55:29.409Z,87.51
2019-04-30T01:58:05.448Z,87.54
2019-04-30T02:00:35.364Z,87.72
2019-04-30T02:03:03.651Z,87.98
2019-04-30T02:05:31.937Z,88.01
2019-04-30T02:08:00.255Z,88.14
2019-04-30T02:10:28.664Z,88.17
2019-04-30T02:12:58.948Z,88.44
2019-04-30T02:15:29.041Z,88.39
2019-04-30T02:17:58.687Z,88.48
2019-04-30T02:20:28.671Z,88.50
2019-04-30T02:22:58.641Z,88.47
2019-04-30T02:25:27.086Z,88.37
2019-04-30T02:27:55.401Z,88.42
2019-04-30T02:30:24.966Z,88.70
2019-04-30T02:32:53.261Z,88.62
2019-04-30T02:35:32.420Z,88.73
2019-04-30T02:38:10.963Z,88.82
2019-04-30T02:40:42.454Z,88.84
2019-04-30T02:43:10.951Z,88.88
2019-04-30T02:45:40.886Z,88.91
2019-04-30T02:48:11.752Z,88.84
2019-04-30T02:50:40.631Z,89.15
2019-04-30T02:53:14.993Z,89.21
2019-04-30T02:55:44.262Z,89.08
2019-04-30T02:58:12.938Z,89.06
2019-04-30T03:00:41.292Z,88.96
2019-04-30T03:03:10.266Z,88.95
2019-04-30T03:05:39.250Z,88.96
2019-04-30T03:08:09.602Z,89.14
2019-04-30T03:10:39.697Z,89.30
2019-04-30T03:13:09.676Z,89.37
2019-04-30T03:15:39.461Z,89.29
2019-04-30T03:18:10.017Z,89.14
2019-04-30T03:20:49.864Z,89.17
2019-04-30T03:23:19.558Z,89.13
2019-04-30T03:25:50.184Z,89.16
2019-04-30T03:28:20.187Z,89.16
2019-04-30T03:30:56.196Z,89.03
2019-04-30T03:33:22.659Z,89.16
2019-04-30T03:35:53.699Z,89.15
2019-04-30T03:38:20.434Z,89.09
2019-04-30T03:40:50.282Z,89.16
2019-04-30T03:43:20.127Z,89.18
2019-04-30T03:45:49.924Z,89.31
2019-04-30T03:48:20.006Z,89.47
2019-04-30T03:50:53.387Z,89.67
2019-04-30T03:53:20.192Z,89.80
2019-04-30T03:55:50.521Z,89.84
2019-04-30T03:58:21.155Z,89.83
2019-04-30T04:01:00.529Z,89.82
2019-04-30T04:03:29.704Z,89.75
2019-04-30T04:06:21.291Z,89.55
2019-04-30T04:08:51.975Z,89.45
2019-04-30T04:11:21.931Z,89.48
2019-04-30T04:13:50.239Z,89.47
2019-04-30T04:16:19.480Z,89.62
2019-04-30T04:18:50.097Z,89.58
2019-04-30T04:21:20.489Z,89.66
2019-04-30T04:23:49.321Z,89.54
2019-04-30T04:26:20.243Z,89.52
2019-04-30T04:28:49.597Z,89.36
2019-04-30T04:31:19.331Z,89.48
2019-04-30T04:33:49.631Z,89.12
2019-04-30T04:36:19.944Z,89.06
2019-04-30T04:38:50.557Z,88.41
2019-04-30T04:41:19.815Z,88.24
2019-04-30T04:43:50.477Z,88.00
2019-04-30T04:46:20.599Z,86.42
2019-04-30T04:48:49.354Z,85.95
2019-04-30T04:51:31.264Z,85.11
2019-04-30T04:53:50.044Z,85.02
2019-04-30T04:56:19.128Z,84.07
2019-04-30T04:58:49.967Z,83.88
2019-04-30T05:01:20.168Z,84.05
2019-04-30T05:03:49.011Z,83.60
2019-04-30T05:06:20.712Z,83.61
2019-04-30T05:08:49.222Z,83.93
2019-04-30T05:11:19.215Z,83.99
2019-04-30T05:13:49.024Z,84.12
2019-04-30T05:16:19.106Z,84.21
2019-04-30T05:18:48.780Z,84.19
2019-04-30T05:21:18.807Z,83.75
2019-04-30T05:23:49.259Z,83.60
2019-04-30T05:26:19.133Z,82.68
2019-04-30T05:28:51.073Z,81.33
2019-04-30T05:31:18.486Z,79.12
2019-04-30T05:33:48.915Z,76.21
2019-04-30T05:36:19.206Z,74.07
2019-04-30T05:38:48.776Z,73.09
2019-04-30T05:41:19.143Z,70.53
2019-04-30T05:43:48.829Z,68.86
2019-04-30T05:46:17.283Z,68.52
2019-04-30T05:48:45.560Z,68.76
2019-04-30T05:51:13.870Z,70.15
2019-04-30T05:53:42.542Z,70.50
2019-04-30T05:56:10.849Z,70.87
2019-04-30T05:58:39.816Z,70.80
2019-04-30T06:01:09.675Z,71.70
2019-04-30T06:03:38.578Z,72.38
2019-04-30T06:06:08.813Z,71.94
2019-04-30T06:08:39.325Z,72.18
2019-04-30T06:11:11.690Z,72.45
2019-04-30T06:13:56.349Z,72.36
2019-04-30T06:16:26.300Z,71.92
2019-04-30T06:18:54.589Z,71.56
2019-04-30T06:21:22.896Z,71.44
2019-04-30T06:23:51.192Z,71.42
2019-04-30T06:26:20.719Z,72.03
2019-04-30T06:28:49.773Z,70.77
2019-04-30T06:31:26.075Z,71.75
2019-04-30T06:33:48.726Z,72.13
2019-04-30T06:36:19.057Z,72.02
2019-04-30T06:38:48.876Z,71.09
2019-04-30T06:41:17.181Z,71.10
2019-04-30T06:43:45.561Z,70.62
2019-04-30T06:46:13.863Z,70.86
2019-04-30T06:48:42.327Z,71.75
2019-04-30T06:51:10.642Z,71.81
2019-04-30T06:53:39.230Z,70.95
2019-04-30T06:56:08.934Z,70.60
2019-04-30T06:58:38.826Z,69.64
2019-04-30T07:01:09.404Z,69.76
2019-04-30T07:03:38.836Z,69.45
2019-04-30T07:06:08.377Z,69.70
2019-04-30T07:08:42.448Z,69.54
2019-04-30T07:11:21.916Z,70.33
2019-04-30T07:13:52.172Z,70.53
2019-04-30T07:16:20.759Z,70.95
2019-04-30T07:18:49.085Z,72.04
2019-04-30T07:23:48.542Z,70.01
2019-04-30T07:26:22.660Z,70.78
2019-04-30T07:28:52.694Z,69.96
2019-04-30T07:31:19.195Z,69.67
2019-04-30T07:33:51.468Z,70.55
2019-04-30T07:36:19.378Z,70.90
2019-04-30T07:38:54.197Z,70.84
2019-04-30T07:41:18.967Z,70.92
2019-04-30T07:43:49.363Z,70.67
2019-04-30T07:46:19.779Z,70.46
2019-04-30T07:48:49.944Z,70.75
2019-04-30T07:51:20.357Z,70.15
2019-04-30T07:53:49.622Z,68.12
2019-04-30T07:56:25.608Z,67.70
2019-04-30T07:58:50.275Z,67.17
2019-04-30T08:01:19.590Z,66.46
2019-04-30T08:03:52.983Z,65.57
2019-04-30T08:06:22.377Z,63.39
2019-04-30T08:08:54.666Z,64.07
2019-04-30T08:09:31.419Z,70.84
2019-04-30T08:11:25.710Z,63.67
2019-04-30T08:13:51.408Z,63.94
2019-04-30T08:16:19.970Z,64.74
2019-04-30T08:18:49.259Z,64.34
2019-04-30T08:21:19.023Z,63.66
2019-04-30T08:23:48.915Z,64.31
2019-04-30T08:26:18.788Z,64.52
2019-04-30T08:28:48.772Z,65.42
2019-04-30T08:31:19.384Z,65.70
2019-04-30T08:33:49.085Z,66.16
2019-04-30T08:36:19.541Z,64.95
2019-04-30T08:38:49.387Z,63.90
2019-04-30T08:41:19.335Z,63.27
2019-04-30T08:43:49.653Z,62.55
2019-04-30T08:46:19.014Z,62.14
2019-04-30T08:48:53.081Z,61.86
2019-04-30T08:51:19.031Z,61.59
2019-04-30T08:53:48.619Z,61.64
2019-04-30T08:56:17.075Z,60.96
2019-04-30T08:58:45.366Z,60.51
2019-04-30T09:01:13.640Z,60.34
2019-04-30T09:03:41.985Z,60.91
2019-04-30T09:06:14.631Z,61.11
2019-04-30T09:08:43.310Z,60.96
2019-04-30T09:11:22.559Z,60.19
2019-04-30T09:13:41.935Z,59.82
2019-04-30T09:16:10.218Z,59.73
2019-04-30T09:18:39.365Z,59.32
2019-04-30T09:21:08.994Z,59.99
2019-04-30T09:23:47.259Z,60.56
2019-04-30T09:26:08.654Z,60.89
2019-04-30T09:28:40.852Z,60.69
2019-04-30T09:31:08.746Z,60.11
2019-04-30T09:33:37.033Z,60.03
2019-04-30T09:36:09.031Z,59.39
2019-04-30T09:38:38.924Z,58.88
2019-04-30T09:41:09.157Z,58.92
2019-04-30T09:43:37.591Z,59.27
2019-04-30T09:46:19.011Z,59.90
2019-04-30T09:48:35.914Z,59.06
2019-04-30T09:51:04.992Z,59.16
2019-04-30T09:53:33.783Z,59.08
2019-04-30T09:56:02.375Z,58.54
2019-04-30T09:58:30.655Z,58.81
2019-04-30T10:00:59.401Z,59.24
2019-04-30T10:03:30.292Z,58.84
2019-04-30T10:05:59.039Z,59.47
2019-04-30T10:08:30.169Z,60.08
2019-04-30T10:11:14.611Z,59.93
2019-04-30T10:13:42.895Z,59.60
2019-04-30T10:16:15.913Z,59.49
2019-04-30T10:18:44.219Z,58.21
2019-04-30T10:21:12.533Z,58.42
2019-04-30T10:23:40.819Z,58.09
2019-04-30T10:26:09.125Z,58.52
2019-04-30T10:28:38.989Z,57.65
2019-04-30T10:31:07.339Z,57.97
2019-04-30T10:33:35.988Z,58.19
2019-04-30T10:36:04.363Z,57.44
2019-04-30T10:38:32.733Z,58.61
2019-04-30T10:41:01.103Z,58.59
2019-04-30T10:43:32.056Z,58.43
2019-04-30T10:45:59.725Z,58.65
2019-04-30T10:48:28.016Z,58.82
2019-04-30T10:50:56.307Z,58.49
2019-04-30T10:53:24.582Z,58.72
2019-04-30T10:55:52.896Z,57.21
2019-04-30T10:58:21.230Z,57.16
2019-04-30T11:00:49.920Z,57.53
2019-04-30T11:03:22.479Z,57.66
2019-04-30T11:05:48.784Z,57.28
2019-04-30T11:08:17.179Z,57.86
2019-04-30T11:10:45.532Z,57.30
2019-04-30T11:13:14.241Z,56.79
2019-04-30T11:15:42.846Z,56.50
2019-04-30T11:18:11.661Z,55.96
2019-04-30T11:20:40.167Z,55.55
2019-04-30T11:23:14.754Z,55.31
2019-04-30T11:25:41.009Z,55.38
2019-04-30T11:28:09.511Z,55.83
2019-04-30T11:30:39.212Z,55.63
2019-04-30T11:33:07.979Z,55.25
2019-04-30T11:35:36.692Z,55.02
2019-04-30T11:38:05.265Z,55.00
2019-04-30T11:40:37.187Z,55.08
2019-04-30T11:43:03.952Z,54.23
2019-04-30T11:45:50.508Z,54.14
2019-04-30T11:48:19.144Z,53.62
2019-04-30T11:50:49.542Z,52.30
2019-04-30T11:53:25.317Z,52.41
2019-04-30T11:55:49.180Z,51.65
2019-04-30T11:58:21.703Z,51.06
2019-04-30T12:00:49.477Z,51.32
2019-04-30T12:03:19.214Z,51.46
2019-04-30T12:05:49.155Z,51.73
2019-04-30T12:08:19.478Z,50.49
2019-04-30T12:10:58.341Z,50.97
2019-04-30T12:13:27.915Z,51.38
2019-04-30T12:15:58.634Z,50.82
2019-04-30T12:18:26.856Z,50.96
2019-04-30T12:20:55.153Z,50.57
2019-04-30T12:23:23.444Z,50.67
2019-04-30T12:25:51.718Z,50.56
2019-04-30T12:28:20.092Z,48.98
2019-04-30T12:30:49.066Z,50.25
2019-04-30T12:33:19.189Z,51.01
2019-04-30T12:35:49.170Z,50.07
2019-04-30T12:38:19.130Z,49.53
2019-04-30T12:40:47.987Z,48.39
2019-04-30T12:43:16.303Z,47.36
2019-04-30T12:45:44.575Z,46.86
2019-04-30T12:48:14.866Z,46.72
2019-04-30T12:50:44.800Z,46.34
2019-04-30T12:53:14.752Z,46.09
2019-04-30T12:55:50.434Z,46.22
2019-04-30T12:58:20.696Z,47.11
2019-04-30T13:00:49.376Z,47.27
2019-04-30T13:03:17.658Z,47.26
2019-04-30T13:05:46.347Z,47.68
2019-04-30T13:08:16.398Z,47.36
2019-04-30T13:10:45.555Z,46.96
2019-04-30T13:13:15.082Z,46.41
2019-04-30T13:15:43.715Z,46.98
2019-04-30T13:18:11.995Z,46.37
2019-04-30T13:20:40.376Z,46.75
2019-04-30T13:23:09.038Z,46.52
2019-04-30T13:25:48.965Z,46.51
2019-04-30T13:28:09.008Z,46.75
2019-04-30T13:30:39.576Z,46.67
2019-04-30T13:33:09.666Z,47.06
2019-04-30T13:35:38.895Z,47.83
2019-04-30T13:38:15.115Z,47.39
2019-04-30T13:40:45.052Z,47.27
2019-04-30T13:43:15.005Z,47.58
2019-04-30T13:45:43.602Z,47.53
2019-04-30T13:48:11.892Z,47.42
2019-04-30T13:50:40.191Z,46.97
2019-04-30T13:53:08.964Z,47.20
2019-04-30T13:55:45.571Z,46.49
2019-04-30T13:58:07.740Z,46.10
2019-04-30T14:00:36.058Z,46.19
2019-04-30T14:03:48.921Z,46.08
2019-04-30T14:06:19.291Z,46.60
2019-04-30T14:08:49.233Z,47.17
2019-04-30T14:11:18.982Z,47.72
2019-04-30T14:13:47.419Z,46.96
2019-04-30T14:16:15.934Z,46.39
2019-04-30T14:18:44.250Z,46.64
2019-04-30T14:21:12.647Z,46.79
2019-04-30T14:23:40.948Z,47.18
2019-04-30T14:26:09.418Z,46.88
2019-04-30T14:28:39.120Z,47.17
2019-04-30T14:31:07.709Z,47.26
2019-04-30T14:33:35.991Z,47.28
2019-04-30T14:36:04.369Z,47.65
2019-04-30T14:38:32.724Z,47.75
2019-04-30T14:41:02.043Z,47.27
2019-04-30T14:43:35.726Z,47.69
2019-04-30T14:46:06.323Z,46.94
2019-04-30T14:48:46.571Z,47.04
2019-04-30T14:51:15.395Z,46.37
2019-04-30T14:54:00.144Z,45.50
2019-04-30T14:56:30.087Z,45.38
2019-04-30T14:59:16.535Z,45.37
2019-04-30T15:01:46.475Z,45.25
2019-04-30T15:04:14.786Z,45.80
2019-04-30T15:06:43.072Z,46.75
2019-04-30T15:09:12.364Z,46.74
2019-04-30T15:11:40.721Z,46.50
2019-04-30T15:14:09.033Z,46.48
2019-04-30T15:16:37.694Z,46.36
2019-04-30T15:19:06.115Z,45.88
2019-04-30T15:21:34.435Z,46.16
2019-04-30T15:24:09.246Z,46.45
2019-04-30T15:26:40.689Z,46.14
2019-04-30T15:29:10.224Z,46.02
2019-04-30T15:31:39.444Z,45.76
2019-04-30T15:34:11.061Z,46.33
2019-04-30T15:36:39.577Z,46.70
2019-04-30T15:39:15.449Z,46.49
2019-04-30T15:41:43.745Z,46.22
2019-04-30T15:44:12.486Z,46.41
2019-04-30T15:46:40.775Z,46.90
2019-04-30T15:49:09.117Z,46.75
2019-04-30T15:51:37.569Z,47.32
2019-04-30T15:54:06.146Z,47.58
2019-04-30T15:56:37.642Z,47.82
2019-04-30T15:59:12.231Z,48.24
2019-04-30T16:01:42.449Z,48.62
2019-04-30T16:04:12.367Z,49.07
2019-04-30T16:06:40.691Z,49.84
2019-04-30T16:09:11.142Z,50.23
2019-04-30T16:11:41.024Z,50.26
2019-04-30T16:14:13.661Z,50.17
2019-04-30T16:16:43.632Z,49.61
2019-04-30T16:19:11.920Z,49.59
2019-04-30T16:21:40.309Z,49.96
2019-04-30T16:24:08.850Z,49.59
2019-04-30T16:26:47.302Z,50.00
2019-04-30T16:29:07.196Z,50.56
2019-04-30T16:31:35.836Z,51.46
2019-04-30T16:34:04.404Z,51.91
2019-04-30T16:36:32.728Z,52.59
2019-04-30T16:39:01.055Z,53.05
2019-04-30T16:41:31.860Z,53.49
2019-04-30T16:43:59.499Z,54.08
2019-04-30T16:46:29.510Z,53.75
2019-04-30T16:48:58.726Z,53.93
2019-04-30T16:51:28.867Z,54.43
2019-04-30T16:53:58.652Z,54.52
2019-04-30T16:56:28.622Z,54.89
2019-04-30T16:59:00.179Z,55.12
2019-04-30T17:01:28.807Z,55.37
2019-04-30T17:03:59.071Z,55.42
2019-04-30T17:06:29.036Z,55.66
2019-04-30T17:08:58.972Z,55.33
2019-04-30T17:11:45.366Z,55.67
2019-04-30T17:14:15.543Z,55.87
2019-04-30T17:16:43.870Z,55.97
2019-04-30T17:19:12.184Z,56.44
2019-04-30T17:21:40.500Z,56.57
2019-04-30T17:24:08.910Z,56.81
2019-04-30T17:26:39.103Z,56.84
2019-04-30T17:29:07.239Z,56.84
2019-04-30T17:31:35.550Z,56.88
2019-04-30T17:34:03.942Z,57.01
2019-04-30T17:36:32.250Z,57.17
2019-04-30T17:39:00.585Z,57.25
2019-04-30T17:41:28.986Z,57.43
2019-04-30T17:43:58.957Z,57.48
2019-04-30T17:46:28.520Z,57.73
2019-04-30T17:48:56.869Z,57.70
2019-04-30T17:51:25.175Z,57.81
2019-04-30T17:54:11.536Z,57.76
2019-04-30T17:56:40.087Z,57.74
2019-04-30T17:59:08.534Z,57.80
2019-04-30T18:01:39.950Z,57.82
2019-04-30T18:04:08.774Z,57.89
2019-04-30T18:06:37.210Z,58.01
2019-04-30T18:09:10.793Z,57.97
2019-04-30T18:11:39.630Z,58.06
2019-04-30T18:14:08.843Z,58.28
2019-04-30T18:16:38.647Z,58.28
2019-04-30T18:19:08.993Z,58.43
2019-04-30T18:21:41.910Z,58.69
2019-04-30T18:24:30.664Z,58.64
2019-04-30T18:27:00.600Z,58.63
2019-04-30T18:29:29.510Z,58.68
2019-04-30T18:31:59.865Z,58.67
2019-04-30T18:34:29.225Z,58.55
2019-04-30T18:36:59.341Z,58.53
2019-04-30T18:39:28.868Z,58.61
2019-04-30T18:41:57.380Z,58.82
2019-04-30T18:44:26.094Z,59.35
2019-04-30T18:46:54.428Z,59.65
2019-04-30T18:49:22.778Z,59.88
2019-04-30T18:51:51.432Z,60.06
2019-04-30T18:54:20.924Z,60.43
2019-04-30T18:56:49.338Z,61.03
2019-04-30T18:59:19.639Z,61.21
2019-04-30T19:01:48.046Z,61.39
2019-04-30T19:04:16.371Z,61.89
2019-04-30T19:06:44.732Z,62.51
2019-04-30T19:09:30.366Z,62.90
2019-04-30T19:12:06.062Z,63.41
2019-04-30T19:14:52.462Z,63.28
2019-04-30T19:17:40.864Z,63.54
2019-04-30T19:20:13.528Z,63.70
2019-04-30T19:22:41.812Z,63.89
2019-04-30T19:25:10.964Z,64.08
2019-04-30T19:27:39.263Z,64.27
2019-04-30T19:30:09.275Z,64.46
2019-04-30T19:32:39.008Z,64.67
2019-04-30T19:35:09.094Z,64.92
2019-04-30T19:37:38.621Z,65.23
2019-04-30T19:40:08.976Z,65.25
2019-04-30T19:42:39.435Z,65.26
2019-04-30T19:45:10.109Z,65.29
2019-04-30T19:47:39.064Z,65.42
2019-04-30T19:50:09.365Z,65.62
2019-04-30T19:52:37.825Z,65.80
2019-04-30T19:55:06.890Z,65.79
2019-04-30T19:57:35.230Z,66.00
2019-04-30T20:00:03.821Z,66.00
2019-04-30T20:02:32.178Z,66.13
2019-04-30T20:05:01.250Z,66.15
2019-04-30T20:07:29.693Z,66.26
2019-04-30T20:10:03.474Z,66.23
2019-04-30T20:12:29.099Z,66.11
2019-04-30T20:14:57.415Z,66.08
2019-04-30T20:17:25.731Z,66.30
2019-04-30T20:19:54.045Z,66.48
2019-04-30T20:22:22.614Z,66.45
2019-04-30T20:24:51.365Z,66.50
2019-04-30T20:27:19.884Z,66.42
2019-04-30T20:29:49.343Z,66.58
2019-04-30T20:32:20.824Z,66.68
2019-04-30T20:34:48.940Z,66.76
2019-04-30T20:37:19.644Z,66.91
2019-04-30T20:39:52.332Z,67.09
2019-04-30T20:42:20.621Z,67.31
2019-04-30T20:44:49.125Z,67.38
2019-04-30T20:47:18.411Z,67.49
2019-04-30T20:49:48.976Z,67.60
2019-04-30T20:52:20.401Z,67.58
2019-04-30T20:54:48.842Z,67.51
2019-04-30T20:57:17.191Z,67.66
2019-04-30T20:59:45.486Z,67.74
2019-04-30T21:02:13.783Z,67.88
2019-04-30T21:04:42.141Z,68.02
2019-04-30T21:07:10.463Z,68.08
2019-04-30T21:09:38.778Z,68.17
2019-04-30T21:12:08.911Z,68.23
2019-04-30T21:14:38.493Z,68.62
2019-04-30T21:17:07.843Z,68.82
2019-04-30T21:19:36.142Z,68.97
2019-04-30T21:22:04.987Z,69.29
2019-04-30T21:24:33.537Z,69.44
2019-04-30T21:27:01.936Z,69.71
2019-04-30T21:29:30.236Z,70.17
2019-04-30T21:32:00.188Z,70.49
2019-04-30T21:34:42.210Z,70.69
2019-04-30T21:37:10.751Z,70.92
2019-04-30T21:39:39.067Z,71.08
2019-04-30T21:42:09.298Z,71.40
2019-04-30T21:44:37.419Z,71.94
2019-04-30T21:47:05.714Z,72.32
2019-04-30T21:49:34.049Z,72.67
2019-04-30T21:52:02.351Z,72.92
2019-04-30T21:54:31.180Z,73.23
2019-04-30T21:56:59.507Z,73.57
2019-04-30T21:59:28.732Z,73.68
2019-04-30T22:01:58.082Z,73.78
2019-04-30T22:04:26.461Z,73.95
2019-04-30T22:06:54.859Z,74.23
2019-04-30T22:09:24.025Z,74.51
2019-04-30T22:11:52.354Z,74.76
2019-04-30T22:14:20.709Z,75.17
2019-04-30T22:16:49.472Z,75.33
2019-04-30T22:19:17.811Z,75.63
2019-04-30T22:21:46.419Z,75.84
2019-04-30T22:24:15.011Z,76.01
2019-04-30T22:26:43.313Z,76.22
2019-04-30T22:29:11.634Z,76.36
2019-04-30T22:31:39.932Z,76.65
2019-04-30T22:34:08.868Z,76.79
2019-04-30T22:36:38.878Z,76.90
2019-04-30T22:39:12.243Z,77.02
2019-04-30T22:41:40.556Z,77.06
2019-04-30T22:44:08.915Z,77.22
2019-04-30T22:46:39.252Z,77.51
2019-04-30T22:49:07.836Z,77.69
2019-04-30T22:51:36.128Z,77.88
2019-04-30T22:54:04.507Z,78.01
2019-04-30T22:56:32.809Z,78.12
2019-04-30T22:59:01.114Z,78.12
2019-04-30T23:01:40.444Z,78.17
2019-04-30T23:04:16.242Z,78.40
2019-04-30T23:06:44.893Z,78.68
2019-04-30T23:09:13.762Z,78.92
2019-04-30T23:11:42.095Z,79.16
2019-04-30T23:14:10.385Z,79.19
2019-04-30T23:16:38.702Z,79.22
2019-04-30T23:19:06.991Z,79.37
2019-04-30T23:21:35.562Z,79.54
2019-04-30T23:24:03.866Z,79.61
2019-04-30T23:26:32.187Z,79.56
2019-04-30T23:29:00.793Z,79.67
2019-04-30T23:31:29.109Z,79.90
2019-04-30T23:33:57.412Z,80.07
2019-04-30T23:36:25.864Z,80.36
2019-04-30T23:38:54.165Z,80.56
2019-04-30T23:41:22.945Z,80.49
2019-04-30T23:43:51.240Z,80.72
2019-04-30T23:46:19.874Z,80.96
2019-04-30T23:48:48.669Z,81.16
2019-04-30T23:51:17.072Z,81.18
2019-04-30T23:53:45.365Z,81.34
2019-04-30T23:56:13.667Z,81.47
2019-04-30T23:58:42.006Z,81.69
